Time;durP1;ratioP1;P1;durP2;ratioP2;P2;SDS_P1;SDS_P2;PMS_P1;PMS_P2;Temp;Humidity;BMP_temperature;BMP_pressure;BME280_temperature;BME280_humidity;BME280_pressure;Samples;Min_cycle;Max_cycle;Signal;HPM_P1;HPM_P2
2023/07/27 00:01:00;;;;;;;;;;;18.20;83.40;;;18.44;49.36;98569.91;4981128;28;123891;-86
2023/07/27 00:03:27;;;;;;;;;;;18.20;83.40;;;18.41;49.64;98565.06;4986123;28;118705;-83
2023/07/27 00:05:55;;;;;;;;;;;18.20;83.60;;;18.41;49.48;98569.84;4979199;28;118449;-84
2023/07/27 00:08:21;;;;;;;;;;;18.20;83.50;;;18.40;49.57;98563.44;4987016;28;123790;-84
2023/07/27 00:10:48;;;;;;;;;;;18.20;83.60;;;18.39;49.49;98567.41;4976658;28;124164;-83
2023/07/27 00:13:16;;;;;;;;;;;18.20;83.70;;;18.42;49.53;98566.66;4976001;28;120388;-84
2023/07/27 00:15:42;;;;;;;;;;;18.20;83.70;;;18.41;49.60;98559.47;4977316;28;119936;-84
2023/07/27 00:18:09;;;;;;;;;;;18.20;83.80;;;18.41;49.45;98565.06;4982788;28;124581;-82
2023/07/27 00:20:35;;;;;;;;;;;18.20;83.80;;;18.42;49.44;98565.88;4975860;28;123370;-83
2023/07/27 00:23:06;;;;;;;;;;;18.20;83.80;;;18.41;49.51;98562.25;4980402;28;121751;-83
2023/07/27 00:25:32;;;;;;;;;;;18.10;83.70;;;18.42;49.47;98549.88;4986777;28;119076;-84
2023/07/27 00:28:01;;;;;;;;;;;18.20;83.80;;;18.40;49.51;98557.84;4977727;28;124844;-84
2023/07/27 00:30:30;;;;;;;;;;;18.10;83.80;;;18.40;49.57;98549.44;4984913;28;123534;-84
2023/07/27 00:32:57;;;;;;;;;;;18.20;83.90;;;18.40;49.61;98551.44;4986029;28;119013;-83
2023/07/27 00:35:33;;;;;;;;;;;18.10;83.80;;;18.39;49.58;98544.22;4978407;28;119234;-85
2023/07/27 00:38:00;;;;;;;;;;;18.10;83.90;;;18.35;49.51;98541.38;4982484;28;124814;-82
2023/07/27 00:40:26;;;;;;;;;;;18.10;83.90;;;18.34;49.63;98548.13;4984528;28;124609;-84
2023/07/27 00:42:52;;;;;;;;;;;18.10;84.00;;;18.33;49.58;98540.94;4980733;28;120235;-83
2023/07/27 00:45:19;;;;;;;;;;;18.10;84.00;;;18.31;49.51;98532.09;4984023;28;118637;-84
2023/07/27 00:47:46;;;;;;;;;;;18.10;84.00;;;18.32;49.75;98539.28;4986570;28;123652;-83
2023/07/27 00:50:12;;;;;;;;;;;18.10;84.10;;;18.32;49.67;98528.09;4981329;28;124126;-83
2023/07/27 00:52:40;;;;;;;;;;;18.10;84.20;;;18.31;49.88;98526.50;4981918;28;119957;-82
2023/07/27 00:55:09;;;;;;;;;;;18.10;84.30;;;18.30;50.11;98530.50;4966671;28;118807;-83
2023/07/27 00:57:35;;;;;;;;;;;18.00;84.20;;;18.29;49.89;98526.06;4984758;28;124553;-84
2023/07/27 01:00:02;;;;;;;;;;;18.00;84.30;;;18.28;49.93;98522.47;4978713;28;126785;-85
2023/07/27 01:02:28;;;;;;;;;;;18.00;84.40;;;18.28;49.85;98518.84;4979100;28;120448;-84
2023/07/27 01:04:57;;;;;;;;;;;18.00;84.40;;;18.25;49.84;98517.59;4983184;28;120033;-83
2023/07/27 01:07:23;;;;;;;;;;;18.00;84.50;;;18.25;49.97;98519.59;4977005;28;123879;-83
2023/07/27 01:09:49;;;;;;;;;;;18.00;84.50;;;18.24;49.98;98510.41;4982381;28;124066;-82
2023/07/27 01:12:25;;;;;;;;;;;18.00;84.60;;;18.24;50.05;98509.56;4974393;28;119389;-82
2023/07/27 01:15:14;;;;;;;;;;;18.00;84.60;;;18.23;50.12;98499.59;4983282;28;118797;-83
2023/07/27 01:17:44;;;;;;;;;;;18.00;84.80;;;18.20;50.12;98503.13;4973892;28;123490;-86
2023/07/27 01:20:16;;;;;;;;;;;18.00;84.90;;;18.21;50.19;98504.72;4989476;28;123911;-85
2023/07/27 01:23:16;;;;;;;;;;;18.00;84.90;;;18.16;50.26;98491.88;4990088;28;120027;-85
2023/07/27 01:26:00;;;;;;;;;;;18.00;84.90;;;18.17;50.15;98503.88;4982263;28;119080;-84
2023/07/27 01:28:43;;;;;;;;;;;18.00;85.00;;;18.16;50.34;98491.03;4993831;28;124298;-87
2023/07/27 01:31:12;;;;;;;;;;;17.90;85.20;;;18.12;50.42;98492.97;4971529;28;123841;-83
2023/07/27 01:33:43;;;;;;;;;;;17.90;85.20;;;18.07;50.19;98486.50;4982931;28;119176;-86
2023/07/27 01:36:17;;;;;;;;;;;17.90;85.10;;;18.03;50.45;98488.44;4984924;28;119168;-85
2023/07/27 01:38:46;;;;;;;;;;;17.90;85.30;;;18.01;50.58;98485.19;4971883;28;123732;-84
2023/07/27 01:41:13;;;;;;;;;;;17.80;85.40;;;17.99;50.68;98475.56;4985573;28;124273;-84
2023/07/27 01:43:40;;;;;;;;;;;17.80;85.40;;;18.00;50.58;98472.41;4983460;28;119069;-84
2023/07/27 01:46:07;;;;;;;;;;;17.80;85.50;;;18.01;50.49;98471.22;4973400;28;118277;-84
2023/07/27 01:48:36;;;;;;;;;;;17.80;85.60;;;18.02;50.69;98461.63;4984911;28;124897;-86
2023/07/27 01:51:03;;;;;;;;;;;17.80;86.40;;;18.02;50.69;98461.63;4970909;28;124589;-86
2023/07/27 01:53:30;;;;;;;;;;;17.80;85.70;;;18.02;50.79;98470.03;4974505;28;120356;-86
2023/07/27 01:55:57;;;;;;;;;;;17.80;85.70;;;18.04;50.76;98466.88;4985280;28;120152;-85
2023/07/27 01:58:23;;;;;;;;;;;17.80;85.80;;;18.04;50.83;98462.09;4985375;28;124406;-85
2023/07/27 02:00:50;;;;;;;;;;;17.80;85.90;;;18.04;50.76;98464.06;4982961;28;124448;-86
2023/07/27 02:03:17;;;;;;;;;;;17.80;85.90;;;18.01;50.87;98457.25;4982918;28;119533;-86
2023/07/27 02:05:43;;;;;;;;;;;18.00;86.10;;;17.98;50.71;98451.59;4984244;28;118609;-85
2023/07/27 02:08:09;;;;;;;;;;;17.80;85.90;;;17.92;50.85;98445.50;4984205;28;124573;-86
2023/07/27 02:10:39;;;;;;;;;;;17.70;85.70;;;17.92;50.97;98448.28;4981602;28;124307;-86
2023/07/27 02:13:12;;;;;;;;;;;17.70;85.80;;;17.89;50.72;98443.41;4980926;28;119397;-86
2023/07/27 02:15:48;;;;;;;;;;;17.70;85.90;;;17.86;50.96;98449.75;4971081;28;118265;-86
2023/07/27 02:18:23;;;;;;;;;;;17.70;85.90;;;17.82;51.15;98448.88;4987081;28;123593;-86
2023/07/27 02:20:50;;;;;;;;;;;17.60;85.90;;;17.78;50.98;98442.38;4971321;28;123553;-86
2023/07/27 02:23:17;;;;;;;;;;;17.60;86.00;;;17.72;50.99;98444.66;4982111;28;119898;-85
2023/07/27 02:25:43;;;;;;;;;;;17.60;86.10;;;17.69;51.42;98444.59;4972053;28;117612;-86
2023/07/27 02:28:12;;;;;;;;;;;17.50;86.10;;;17.69;51.30;98433.44;4971320;28;123248;-86
2023/07/27 02:30:38;;;;;;;;;;;17.50;86.20;;;17.68;51.27;98435.41;4983706;28;124014;-86
2023/07/27 02:33:04;;;;;;;;;;;17.50;86.40;;;17.67;51.27;98431.78;4985700;28;119985;-86
2023/07/27 02:35:33;;;;;;;;;;;17.50;86.50;;;17.66;51.45;98427.38;4985585;28;118958;-85
2023/07/27 02:37:59;;;;;;;;;;;17.50;86.60;;;17.67;51.45;98428.19;4973831;28;124034;-86
2023/07/27 02:40:25;;;;;;;;;;;17.50;86.70;;;17.66;51.58;98421.81;4968635;28;122903;-86
2023/07/27 02:42:52;;;;;;;;;;;17.40;86.60;;;17.66;51.46;98424.59;4980915;28;120370;-86
2023/07/27 02:45:18;;;;;;;;;;;17.40;86.70;;;17.63;51.43;98416.97;4980271;28;119582;-85
2023/07/27 02:47:44;;;;;;;;;;;17.40;86.80;;;17.63;51.68;98416.97;4984428;28;124207;-85
2023/07/27 02:50:10;;;;;;;;;;;17.40;86.90;;;17.62;51.81;98412.56;4980721;28;124071;-86
2023/07/27 02:52:37;;;;;;;;;;;17.40;87.00;;;17.59;51.79;98413.28;4987453;28;118754;-87
2023/07/27 02:55:03;;;;;;;;;;;17.40;87.40;;;17.58;51.90;98411.66;4985445;28;118488;-86
2023/07/27 02:57:30;;;;;;;;;;;17.30;87.40;;;17.57;51.95;98410.06;4987360;28;124259;-86
2023/07/27 02:59:56;;;;;;;;;;;17.30;87.50;;;17.58;52.07;98410.88;4985735;28;124200;-86
2023/07/27 03:02:22;;;;;;;;;;;17.30;87.80;;;17.58;52.28;98411.66;4978371;28;119537;-86
2023/07/27 03:04:48;;;;;;;;;;;17.30;87.90;;;17.59;52.00;98412.47;4971594;28;117976;-85
2023/07/27 03:07:14;;;;;;;;;;;17.30;87.90;;;17.60;52.14;98406.53;4985327;28;124124;-86
2023/07/27 03:09:44;;;;;;;;;;;17.30;88.00;;;17.60;52.14;98409.31;4985898;28;124259;-84
2023/07/27 03:12:11;;;;;;;;;;;17.30;88.00;;;17.61;52.15;98398.94;4977579;28;120604;-85
2023/07/27 03:14:38;;;;;;;;;;;17.40;88.10;;;17.63;52.19;98408.56;4965860;28;118517;-86
2023/07/27 03:17:04;;;;;;;;;;;17.40;88.20;;;17.67;52.04;98411.44;4981542;28;124171;-86
2023/07/27 03:19:30;;;;;;;;;;;17.40;88.30;;;17.70;52.35;98409.88;4985299;28;123925;-86
2023/07/27 03:21:59;;;;;;;;;;;17.40;88.40;;;17.74;52.10;98407.97;4984840;28;119902;-83
2023/07/27 03:24:28;;;;;;;;;;;17.40;88.40;;;17.77;52.32;98410.84;4975029;28;118828;-86
2023/07/27 03:26:55;;;;;;;;;;;17.40;88.40;;;17.78;52.00;98411.63;4981033;28;124768;-85
2023/07/27 03:29:21;;;;;;;;;;;17.50;88.50;;;17.81;52.17;98408.13;4971836;28;123882;-86
2023/07/27 03:31:47;;;;;;;;;;;17.50;88.50;;;17.82;52.30;98410.56;4976998;28;120805;-86
2023/07/27 03:34:13;;;;;;;;;;;17.50;88.60;;;17.83;52.12;98416.97;4984870;28;118738;-85
2023/07/27 03:36:40;;;;;;;;;;;17.50;88.50;;;17.84;52.00;98401.81;4985298;28;124101;-84
2023/07/27 03:39:06;;;;;;;;;;;17.50;88.60;;;17.85;52.19;98397.84;4987496;28;124459;-86
2023/07/27 03:41:32;;;;;;;;;;;17.50;88.70;;;17.83;52.19;98402.97;4987367;28;119010;-86
2023/07/27 03:43:58;;;;;;;;;;;17.50;88.70;;;17.83;52.24;98394.59;4983968;28;117218;-86
2023/07/27 03:46:25;;;;;;;;;;;17.50;88.70;;;17.84;52.11;98399.03;4985536;28;124651;-86
2023/07/27 03:48:51;;;;;;;;;;;17.50;88.70;;;17.86;52.05;98388.25;4985771;28;124065;-86
2023/07/27 03:51:20;;;;;;;;;;;17.50;88.70;;;17.88;52.21;98394.28;4985117;28;119463;-86
2023/07/27 03:53:46;;;;;;;;;;;17.60;88.70;;;17.90;52.18;98391.94;4986529;28;118377;-85
2023/07/27 03:56:12;;;;;;;;;;;17.60;88.70;;;17.93;51.98;98388.41;4978179;28;125054;-84
2023/07/27 03:58:38;;;;;;;;;;;17.60;88.60;;;17.95;51.94;98376.88;4982565;28;124672;-84
2023/07/27 04:01:05;;;;;;;;;;;17.60;88.60;;;17.96;52.03;98381.25;4982466;28;119156;-81
2023/07/27 04:03:31;;;;;;;;;;;17.60;88.60;;;17.96;51.88;98381.25;4983775;28;118972;-83
2023/07/27 04:05:58;;;;;;;;;;;17.60;88.60;;;17.97;52.17;98375.28;4982020;28;124296;-84
2023/07/27 04:08:27;;;;;;;;;;;17.70;88.70;;;17.99;51.97;98369.34;4984128;28;123120;-83
2023/07/27 04:10:53;;;;;;;;;;;17.70;88.70;;;18.01;52.04;98366.97;4982922;28;119447;-84
2023/07/27 04:13:19;;;;;;;;;;;17.70;88.70;;;18.01;52.01;98362.19;4974373;28;118604;-84
2023/07/27 04:15:45;;;;;;;;;;;17.70;88.70;;;18.03;51.97;98356.25;4983258;28;124116;-83
2023/07/27 04:18:12;;;;;;;;;;;17.70;88.70;;;18.04;51.87;98363.44;4967122;28;122931;-83
2023/07/27 04:20:38;;;;;;;;;;;17.70;88.70;;;18.05;51.94;98357.47;4968600;28;120347;-82
2023/07/27 04:23:04;;;;;;;;;;;17.70;88.70;;;18.09;51.99;98363.13;4978841;28;119946;-82
2023/07/27 04:25:30;;;;;;;;;;;17.80;88.80;;;18.12;51.82;98367.16;4984381;28;124770;-82
2023/07/27 04:27:57;;;;;;;;;;;17.80;88.70;;;18.12;51.80;98359.59;4965491;28;122830;-83
2023/07/27 04:30:23;;;;;;;;;;;17.80;88.70;;;18.13;51.95;98368.78;4980471;28;119590;-82
2023/07/27 04:32:49;;;;;;;;;;;17.80;88.70;;;18.14;51.80;98365.63;4994031;28;118634;-82
2023/07/27 04:35:18;;;;;;;;;;;17.80;88.70;;;18.15;51.95;98361.63;4986805;28;123347;-82
2023/07/27 04:37:44;;;;;;;;;;;17.80;88.70;;;18.16;51.85;98363.25;4984140;28;123784;-83
2023/07/27 04:40:11;;;;;;;;;;;17.80;88.70;;;18.19;51.83;98364.47;4986953;28;119226;-83
2023/07/27 04:42:37;;;;;;;;;;;17.80;88.70;;;18.19;51.71;98356.09;4981041;28;119146;-82
2023/07/27 04:45:06;;;;;;;;;;;17.80;88.70;;;18.18;51.70;98362.88;4985452;28;123761;-83
2023/07/27 04:47:33;;;;;;;;;;;17.80;88.60;;;18.17;51.79;98358.47;4986136;28;123347;-83
2023/07/27 04:49:59;;;;;;;;;;;17.90;89.30;;;18.17;51.43;98359.28;4986609;28;118660;-84
2023/07/27 04:52:25;;;;;;;;;;;17.90;88.60;;;18.16;51.71;98348.44;4983993;28;117461;-83
2023/07/27 04:54:51;;;;;;;;;;;17.80;88.40;;;18.15;51.75;98358.03;4986872;28;124172;-83
2023/07/27 04:57:18;;;;;;;;;;;17.90;88.50;;;18.15;51.83;98356.03;4987145;28;123744;-82
2023/07/27 04:59:44;;;;;;;;;;;17.80;88.50;;;18.18;51.82;98357.28;4981158;28;119239;-83
2023/07/27 05:02:10;;;;;;;;;;;17.90;88.50;;;18.21;51.65;98362.13;4977845;28;119206;-82
2023/07/27 05:04:39;;;;;;;;;;;17.90;88.50;;;18.21;51.54;98354.53;4985200;28;123895;-84
2023/07/27 05:07:05;;;;;;;;;;;17.90;88.50;;;18.23;51.54;98356.97;4983525;28;123284;-80
2023/07/27 05:09:32;;;;;;;;;;;17.90;88.50;;;18.24;51.58;98355.78;4986948;28;120441;-82
2023/07/27 05:11:58;;;;;;;;;;;17.90;88.50;;;18.26;51.52;98353.41;4987352;28;119283;-84
2023/07/27 05:14:25;;;;;;;;;;;17.90;88.50;;;18.26;51.42;98353.41;4969841;28;123548;-81
2023/07/27 05:16:51;;;;;;;;;;;17.90;88.40;;;18.28;51.61;98353.84;4984866;28;123342;-82
2023/07/27 05:19:19;;;;;;;;;;;18.00;88.50;;;18.26;51.49;98359.00;4972339;28;118871;-80
2023/07/27 05:21:48;;;;;;;;;;;17.90;88.40;;;18.28;51.72;98365.03;4978486;28;118380;-83
2023/07/27 05:24:16;;;;;;;;;;;18.00;88.60;;;18.29;51.55;98363.84;4981731;28;124400;-82
2023/07/27 05:26:46;;;;;;;;;;;18.00;88.70;;;18.30;51.70;98357.09;4985703;28;123718;-82
2023/07/27 05:29:14;;;;;;;;;;;18.00;88.80;;;18.29;51.59;98349.88;4982146;28;119524;-81
2023/07/27 05:31:41;;;;;;;;;;;18.00;88.70;;;18.30;51.65;98362.69;4987060;28;119405;-82
2023/07/27 05:34:08;;;;;;;;;;;17.90;88.70;;;18.29;51.80;98353.47;4980360;28;124805;-82
2023/07/27 05:36:36;;;;;;;;;;;17.90;88.80;;;18.30;51.73;98357.88;4986032;28;124181;-81
2023/07/27 05:39:04;;;;;;;;;;;17.90;88.80;;;18.30;51.84;98355.09;4988988;28;119545;-82
2023/07/27 05:41:31;;;;;;;;;;;18.00;89.00;;;18.30;51.81;98343.91;4985010;28;118587;-83
2023/07/27 05:43:57;;;;;;;;;;;18.00;89.00;;;18.32;51.86;98349.94;4985232;28;124615;-83
2023/07/27 05:46:23;;;;;;;;;;;18.00;89.00;;;18.33;51.89;98340.34;4987167;28;123996;-80
2023/07/27 05:48:50;;;;;;;;;;;18.00;89.10;;;18.36;51.76;98340.78;4987437;28;119683;-80
2023/07/27 05:51:16;;;;;;;;;;;18.00;89.00;;;18.38;51.73;98350.44;4982399;28;118004;-79
2023/07/27 05:53:44;;;;;;;;;;;18.00;89.70;;;18.42;51.89;98351.28;4979646;28;123888;-82
2023/07/27 05:56:10;;;;;;;;;;;18.10;89.20;;;18.46;51.78;98349.34;4986315;28;123918;-82
2023/07/27 05:58:37;;;;;;;;;;;18.10;89.20;;;18.50;51.81;98343.81;4967938;28;119165;-83
2023/07/27 06:01:03;;;;;;;;;;;18.10;89.30;;;18.51;51.89;98339.81;4979649;28;119527;-80
2023/07/27 06:03:32;;;;;;;;;;;18.10;89.30;;;18.52;51.68;98336.66;4985829;28;124786;-81
2023/07/27 06:05:58;;;;;;;;;;;18.10;89.30;;;18.54;52.01;98342.69;4981246;28;123840;-80
2023/07/27 06:08:25;;;;;;;;;;;18.20;89.40;;;18.57;51.79;98340.31;4984688;28;120088;-81
2023/07/27 06:11:06;;;;;;;;;;;18.20;89.70;;;18.59;51.81;98338.75;4966962;28;118233;-82
2023/07/27 06:13:35;;;;;;;;;;;18.20;90.00;;;18.60;51.85;98343.16;4983456;28;124185;-80
2023/07/27 06:16:02;;;;;;;;;;;18.20;89.40;;;18.62;51.64;98340.81;4984802;28;123125;-82
2023/07/27 06:18:28;;;;;;;;;;;18.20;89.40;;;18.68;51.76;98346.88;4984758;28;119112;-80
2023/07/27 06:20:54;;;;;;;;;;;18.30;89.50;;;18.72;51.84;98333.72;4985624;28;119550;-81
2023/07/27 06:23:21;;;;;;;;;;;18.30;89.50;;;18.77;51.75;98341.81;4984950;28;124105;-80
2023/07/27 06:25:47;;;;;;;;;;;18.30;89.50;;;18.79;51.77;98345.06;4984902;28;123880;-80
2023/07/27 06:28:15;;;;;;;;;;;18.40;89.60;;;18.82;51.60;98338.69;4984553;28;119952;-79
2023/07/27 06:30:42;;;;;;;;;;;18.40;89.60;;;18.89;51.82;98333.22;4984260;28;118826;-83
2023/07/27 06:33:08;;;;;;;;;;;18.50;89.70;;;18.93;51.77;98338.84;4988860;28;124138;-80
2023/07/27 06:35:34;;;;;;;;;;;18.50;89.70;;;19.01;51.35;98342.53;4971758;28;124083;-82
2023/07/27 06:38:01;;;;;;;;;;;18.50;89.60;;;19.04;51.41;98338.97;4986496;28;119455;-82
2023/07/27 06:40:28;;;;;;;;;;;18.60;89.70;;;19.07;51.60;98332.63;4992811;28;119344;-80
2023/07/27 06:42:54;;;;;;;;;;;18.60;89.70;;;19.09;51.60;98333.84;4971003;28;124004;-80
2023/07/27 06:45:20;;;;;;;;;;;18.60;89.70;;;19.14;51.47;98333.53;4981101;28;124077;-80
2023/07/27 06:47:47;;;;;;;;;;;18.70;89.70;;;19.18;51.64;98328.78;4984831;28;119526;-80
2023/07/27 06:50:13;;;;;;;;;;;18.80;89.80;;;19.22;51.63;98326.00;4957720;28;119273;-81
2023/07/27 06:52:39;;;;;;;;;;;18.80;89.80;;;19.27;51.45;98324.88;4979445;28;124817;-80
2023/07/27 06:55:06;;;;;;;;;;;18.80;89.70;;;19.31;51.16;98315.31;4975151;28;124140;-81
2023/07/27 06:57:32;;;;;;;;;;;18.90;89.60;;;19.36;51.15;98322.56;4967622;28;118785;-81
2023/07/27 06:59:58;;;;;;;;;;;18.90;89.50;;;19.41;51.31;98319.44;4973925;28;118685;-81
2023/07/27 07:02:24;;;;;;;;;;;19.00;89.50;;;19.46;50.97;98315.50;4968547;28;124356;-80
2023/07/27 07:04:51;;;;;;;;;;;19.00;89.30;;;19.48;50.81;98318.69;4979217;28;124357;-80
2023/07/27 07:07:19;;;;;;;;;;;19.00;89.20;;;19.50;50.82;98317.13;4987416;28;119251;-82
2023/07/27 07:09:46;;;;;;;;;;;19.10;89.10;;;19.52;51.03;98308.34;4970051;28;118404;-80
2023/07/27 07:12:12;;;;;;;;;;;19.10;89.20;;;19.54;51.08;98312.38;4979398;28;124271;-80
2023/07/27 07:14:41;;;;;;;;;;;19.10;89.10;;;19.58;50.74;98312.41;4971422;28;123859;-80
2023/07/27 07:17:07;;;;;;;;;;;19.20;89.20;;;19.60;50.93;98308.03;4966908;28;118632;-80
2023/07/27 07:19:33;;;;;;;;;;;19.20;89.00;;;19.62;50.84;98307.66;4966126;28;119203;-80
2023/07/27 07:21:59;;;;;;;;;;;19.20;89.00;;;;;;4975855;28;124551;-80
2023/07/27 07:24:25;;;;;;;;;;;19.20;89.00;;;19.67;50.87;98304.53;4981746;28;124313;-80
2023/07/27 07:26:52;;;;;;;;;;;19.30;89.10;;;19.69;50.66;98310.53;4973317;28;119512;-81
2023/07/27 07:29:21;;;;;;;;;;;19.30;89.00;;;19.72;50.85;98297.75;4980543;28;118491;-81
2023/07/27 07:31:48;;;;;;;;;;;19.30;88.90;;;19.73;50.76;98302.97;4999672;28;123567;-79
2023/07/27 07:34:14;;;;;;;;;;;19.40;88.90;;;19.75;50.87;98303.41;4982005;28;123304;-81
2023/07/27 07:36:43;;;;;;;;;;;19.40;88.90;;;19.78;50.88;98299.81;4981877;28;120773;-81
2023/07/27 07:39:09;;;;;;;;;;;19.40;88.90;;;19.80;50.77;98289.03;4987711;28;119647;-81
2023/07/27 07:41:36;;;;;;;;;;;19.40;88.90;;;19.84;50.75;98287.06;4985387;28;124133;-81
2023/07/27 07:44:02;;;;;;;;;;;19.50;88.80;;;19.85;50.69;98283.06;4979953;28;124058;-84
2023/07/27 07:46:28;;;;;;;;;;;19.50;88.70;;;19.88;50.46;98289.09;4983196;28;120406;-84
2023/07/27 07:48:57;;;;;;;;;;;19.50;88.60;;;19.91;50.36;98280.72;4981981;28;118942;-87
2023/07/27 07:51:23;;;;;;;;;;;19.50;88.50;;;19.95;50.49;98281.53;4972415;28;123285;-83
2023/07/27 07:53:50;;;;;;;;;;;19.60;88.50;;;19.99;50.10;98281.59;4982710;28;123994;-82
2023/07/27 07:56:17;;;;;;;;;;;19.60;88.30;;;19.99;49.76;98282.38;4985169;28;119241;-82
2023/07/27 07:58:47;;;;;;;;;;;20.10;88.40;;;20.00;50.11;98274.78;4983296;28;118766;-80
2023/07/27 08:01:13;;;;;;;;;;;19.60;87.80;;;20.01;49.79;98274.38;4976435;28;125977;-81
2023/07/27 08:03:39;;;;;;;;;;;19.70;87.80;;;20.03;50.00;98274.00;4982677;28;125030;-81
2023/07/27 08:06:08;;;;;;;;;;;19.60;87.50;;;20.04;49.80;98269.97;4981219;28;119983;-81
2023/07/27 08:08:37;;;;;;;;;;;19.70;87.50;;;20.06;49.33;98274.00;4977191;28;118668;-83
2023/07/27 08:11:04;;;;;;;;;;;19.70;87.20;;;20.06;49.67;98281.63;4983537;28;124911;-81
2023/07/27 08:13:31;;;;;;;;;;;19.70;87.20;;;20.08;49.59;98268.03;4981263;28;123864;-82
2023/07/27 08:15:57;;;;;;;;;;;19.70;87.10;;;20.08;49.31;98260.41;4983657;28;119838;-81
2023/07/27 08:18:23;;;;;;;;;;;19.70;87.00;;;20.10;49.71;98253.63;4970120;28;117569;-83
2023/07/27 08:21:00;;;;;;;;;;;19.70;86.90;;;20.11;49.49;98258.84;4986479;28;124825;-81
2023/07/27 08:23:27;;;;;;;;;;;19.70;86.80;;;20.11;49.32;98255.22;4963267;28;122724;-82
2023/07/27 08:25:54;;;;;;;;;;;19.70;86.70;;;20.13;49.07;98253.66;4965160;28;119579;-80
2023/07/27 08:28:20;;;;;;;;;;;19.80;86.70;;;20.16;48.78;98263.28;4982819;28;120389;-82
2023/07/27 08:30:50;;;;;;;;;;;19.80;86.60;;;20.17;48.97;98246.03;4977244;28;124071;-81
2023/07/27 08:33:17;;;;;;;;;;;19.80;86.50;;;20.20;48.77;98241.66;4981586;28;123952;-81
2023/07/27 08:35:43;;;;;;;;;;;19.80;86.40;;;20.22;49.03;98244.88;4966197;28;118228;-85
2023/07/27 08:38:09;;;;;;;;;;;19.90;86.40;;;20.23;49.09;98244.50;4965757;28;118369;-81
2023/07/27 08:40:36;;;;;;;;;;;19.80;86.20;;;20.25;48.91;98241.28;4984311;28;124210;-84
2023/07/27 08:43:04;;;;;;;;;;;19.90;86.90;;;20.27;49.12;98230.50;4987197;28;123642;-80
2023/07/27 08:45:31;;;;;;;;;;;19.90;86.20;;;20.30;48.90;98230.50;4958562;28;119384;-80
2023/07/27 08:47:58;;;;;;;;;;;20.00;86.20;;;20.33;48.89;98228.91;4963990;28;118490;-79
2023/07/27 08:50:24;;;;;;;;;;;20.00;86.10;;;20.36;48.64;98230.13;4969745;28;123550;-81
2023/07/27 08:52:53;;;;;;;;;;;20.00;86.10;;;20.39;48.79;98232.97;4982893;28;124264;-79
2023/07/27 08:55:22;;;;;;;;;;;20.00;86.10;;;20.40;48.49;98228.97;4984385;28;119717;-80
2023/07/27 08:57:48;;;;;;;;;;;20.00;85.90;;;20.40;48.81;98223.34;4969717;28;118267;-81
2023/07/27 09:00:15;;;;;;;;;;;20.10;86.00;;;20.43;48.72;98210.53;4983668;28;124670;-82
2023/07/27 09:02:41;;;;;;;;;;;20.10;86.00;;;20.47;48.58;98211.34;4969703;28;122981;-82
2023/07/27 09:05:12;;;;;;;;;;;20.10;86.00;;;20.50;48.58;98210.59;4984157;28;119495;-80
2023/07/27 09:07:39;;;;;;;;;;;20.10;85.90;;;20.52;48.67;98209.00;4974104;28;118512;-80
2023/07/27 09:10:08;;;;;;;;;;;20.20;85.90;;;20.55;48.56;98203.81;4974642;28;124811;-81
2023/07/27 09:12:34;;;;;;;;;;;20.20;85.80;;;20.56;48.56;98199.81;4985460;28;123916;-81
2023/07/27 09:15:13;;;;;;;;;;;20.20;85.70;;;20.58;48.18;98195.41;4965745;28;121042;-80
2023/07/27 09:17:40;;;;;;;;;;;20.20;85.60;;;20.60;48.46;98204.22;4978321;28;120166;-81
2023/07/27 09:20:14;;;;;;;;;;;20.30;85.60;;;20.64;48.52;98204.25;4983465;28;124286;-81
2023/07/27 09:22:45;;;;;;;;;;;20.30;85.50;;;20.67;48.49;98211.88;4966161;28;123166;-81
2023/07/27 09:25:11;;;;;;;;;;;20.30;85.50;;;20.69;48.52;98206.69;4985288;28;120660;-82
2023/07/27 09:27:45;;;;;;;;;;;20.40;85.50;;;20.71;48.13;98204.28;4965129;28;118253;-81
2023/07/27 09:30:12;;;;;;;;;;;20.40;85.30;;;20.73;48.42;98213.13;4966996;28;123567;-79
2023/07/27 09:32:39;;;;;;;;;;;20.40;85.30;;;20.72;48.43;98217.94;4959045;28;123915;-81
2023/07/27 09:35:12;;;;;;;;;;;20.40;85.40;;;20.72;48.54;98222.75;4980825;28;119464;-81
2023/07/27 09:37:52;;;;;;;;;;;20.40;85.60;;;20.70;48.54;98219.53;4983160;28;117926;-81
2023/07/27 09:40:21;;;;;;;;;;;20.40;85.90;;;20.67;49.18;98221.13;4967215;28;124171;-82
2023/07/27 09:42:49;;;;;;;;;;;20.40;86.20;;;20.69;49.16;98215.13;4981816;28;124544;-82
2023/07/27 09:45:16;;;;;;;;;;;20.40;86.40;;;20.70;49.31;98220.31;4981071;28;119054;-81
2023/07/27 09:47:42;;;;;;;;;;;20.40;86.60;;;20.70;49.47;98220.31;4968773;28;117697;-81
2023/07/27 09:50:09;;;;;;;;;;;20.40;86.70;;;20.73;49.34;98225.13;4983190;28;123648;-81
2023/07/27 09:52:41;;;;;;;;;;;20.40;86.80;;;20.73;49.69;98213.91;4967647;28;122891;-81
2023/07/27 09:55:08;;;;;;;;;;;20.40;86.90;;;20.74;49.58;98203.50;4979989;28;119394;-80
2023/07/27 09:57:34;;;;;;;;;;;20.40;87.00;;;20.76;49.73;98200.28;4971958;28;117907;-81
2023/07/27 10:00:04;;;;;;;;;;;20.50;87.20;;;20.80;49.87;98198.31;4986352;28;124265;-81
2023/07/27 10:02:34;;;;;;;;;;;20.50;87.30;;;20.82;49.75;98196.72;4985801;28;124163;-81
2023/07/27 10:05:03;;;;;;;;;;;20.50;87.40;;;20.82;49.68;98188.28;4985461;28;120920;-81
2023/07/27 10:07:30;;;;;;;;;;;20.50;87.40;;;20.84;49.58;98191.50;4987069;28;119726;-81
2023/07/27 10:10:27;;;;;;;;;;;20.60;87.40;;;20.85;49.59;98197.94;4972221;28;123166;-82
2023/07/27 10:13:04;;;;;;;;;;;20.60;87.50;;;20.87;49.77;98189.91;4985650;28;123784;-81
2023/07/27 10:15:30;;;;;;;;;;;20.50;87.40;;;20.86;49.85;98191.09;4967684;28;119179;-81
2023/07/27 10:17:58;;;;;;;;;;;20.60;87.60;;;20.88;50.21;98191.53;4986034;28;119180;-82
2023/07/27 10:20:25;;;;;;;;;;;20.60;87.60;;;20.89;49.96;98193.91;4986746;28;124398;-81
2023/07/27 10:23:13;;;;;;;;;;;20.60;87.60;;;20.91;49.90;98185.09;4986118;28;124048;-81
2023/07/27 10:25:54;;;;;;;;;;;20.60;87.60;;;20.90;49.88;98183.47;4974282;28;118605;-81
2023/07/27 10:28:44;;;;;;;;;;;20.60;87.60;;;20.91;49.89;98168.25;4975520;28;118725;-81
2023/07/27 10:31:14;;;;;;;;;;;20.60;87.60;;;20.95;49.67;98178.31;4967921;28;124236;-81
2023/07/27 10:33:46;;;;;;;;;;;20.60;87.50;;;20.98;49.75;98185.09;4969208;28;123782;-80
2023/07/27 10:36:14;;;;;;;;;;;20.60;87.50;;;21.01;49.58;98175.91;4979453;28;119668;-81
2023/07/27 10:38:51;;;;;;;;;;;20.70;87.60;;;21.04;49.67;98189.16;4959749;28;117740;-81
2023/07/27 10:41:19;;;;;;;;;;;20.70;87.50;;;21.06;49.50;98175.50;4984512;28;124895;-81
2023/07/27 10:44:07;;;;;;;;;;;20.70;87.30;;;21.07;49.41;98173.50;4978278;28;123860;-81
2023/07/27 10:46:37;;;;;;;;;;;20.70;87.20;;;21.12;49.29;98173.13;4984444;28;118845;-82
2023/07/27 10:49:17;;;;;;;;;;;20.70;87.10;;;21.15;49.03;98167.50;4984253;28;118883;-81
2023/07/27 10:51:47;;;;;;;;;;;20.80;86.90;;;21.19;48.77;98162.69;4966037;28;124153;-82
2023/07/27 10:54:16;;;;;;;;;;;20.80;86.70;;;21.24;48.81;98146.66;4984479;28;123158;-82
2023/07/27 10:56:43;;;;;;;;;;;20.80;86.60;;;21.29;49.08;98143.44;4977084;28;121828;-81
2023/07/27 10:59:14;;;;;;;;;;;20.90;86.50;;;21.35;48.31;98141.81;4987899;28;120420;-79
2023/07/27 11:01:47;;;;;;;;;;;20.90;86.30;;;21.38;48.30;98139.03;4984578;28;125552;-81
2023/07/27 11:04:13;;;;;;;;;;;21.00;86.30;;;21.44;48.61;98136.66;4980993;28;124171;-81
2023/07/27 11:06:43;;;;;;;;;;;21.00;86.20;;;21.50;48.18;98132.22;4980292;28;119477;-81
2023/07/27 11:09:14;;;;;;;;;;;21.10;86.20;;;21.58;48.53;98133.84;4985844;28;118360;-80
2023/07/27 11:11:40;;;;;;;;;;;21.20;86.30;;;21.64;48.26;98141.88;4983734;28;124427;-81
2023/07/27 11:14:07;;;;;;;;;;;21.20;86.00;;;21.69;47.98;98139.44;4987521;28;124592;-81